Time;durP1;ratioP1;P1;durP2;ratioP2;P2;SDS_P1;SDS_P2;PMS_P1;PMS_P2;Temp;Humidity;BMP_temperature;BMP_pressure;BME280_temperature;BME280_humidity;BME280_pressure;Samples;Min_cycle;Max_cycle;Signal;HPM_P1;HPM_P2
2021/10/03 00:01:21;;;;;;;6.07;2.42;;;16.30;79.70;;;;;;4998763;28;20120;-67
2021/10/03 00:03:49;;;;;;;6.45;2.55;;;16.30;79.20;;;;;;4999382;28;20389;-67
2021/10/03 00:06:17;;;;;;;5.80;2.58;;;16.40;79.20;;;;;;5003478;28;20579;-66
2021/10/03 00:08:44;;;;;;;5.47;2.63;;;16.50;78.30;;;;;;5001743;28;20117;-68
2021/10/03 00:11:11;;;;;;;4.88;2.60;;;16.80;76.90;;;;;;5003567;28;20022;-68
2021/10/03 00:13:37;;;;;;;7.40;2.88;;;16.80;77.00;;;;;;4992418;28;20037;-66
2021/10/03 00:16:04;;;;;;;4.63;2.55;;;16.90;77.10;;;;;;5000262;28;20108;-67
2021/10/03 00:18:30;;;;;;;4.65;2.63;;;17.00;76.70;;;;;;5001529;28;20042;-66
2021/10/03 00:20:57;;;;;;;4.70;2.85;;;17.00;76.30;;;;;;4999021;28;20030;-66
2021/10/03 00:23:23;;;;;;;4.43;2.60;;;17.00;76.60;;;;;;5002439;28;20488;-68
2021/10/03 00:25:48;;;;;;;4.85;2.55;;;17.10;76.00;;;;;;4997707;28;20026;-65
2021/10/03 00:28:15;;;;;;;4.38;2.65;;;17.00;76.50;;;;;;4996525;28;20037;-66
2021/10/03 00:30:43;;;;;;;5.28;3.08;;;17.00;76.30;;;;;;5003551;28;20109;-68
2021/10/03 00:33:09;;;;;;;6.25;2.78;;;17.00;76.40;;;;;;5000231;28;20044;-67
2021/10/03 00:35:36;;;;;;;6.20;3.17;;;17.10;76.00;;;;;;5001199;28;20496;-67
2021/10/03 00:38:04;;;;;;;3.70;2.58;;;17.00;76.60;;;;;;5002530;28;20029;-67
2021/10/03 00:40:32;;;;;;;6.00;2.65;;;17.10;76.30;;;;;;5005011;28;20037;-68
2021/10/03 00:43:02;;;;;;;4.85;2.67;;;17.10;76.30;;;;;;5003304;28;20045;-67
2021/10/03 00:45:29;;;;;;;5.95;2.75;;;17.10;76.10;;;;;;5006643;28;20361;-67
2021/10/03 00:47:55;;;;;;;7.45;2.85;;;17.20;76.10;;;;;;5004722;28;20022;-67
2021/10/03 00:50:21;;;;;;;4.65;2.58;;;17.20;76.10;;;;;;5003443;28;20500;-67
2021/10/03 00:52:48;;;;;;;7.32;3.05;;;17.10;76.60;;;;;;5001061;28;20025;-66
2021/10/03 00:55:15;;;;;;;6.03;2.78;;;17.20;76.40;;;;;;5007315;28;20037;-67
2021/10/03 00:57:42;;;;;;;6.93;3.10;;;17.10;76.90;;;;;;5006131;28;20044;-65
2021/10/03 01:00:09;;;;;;;5.78;2.95;;;17.30;76.30;;;;;;5003740;28;20081;-67
2021/10/03 01:02:35;;;;;;;6.22;3.10;;;17.20;76.50;;;;;;5005108;28;20040;-66
2021/10/03 01:05:01;;;;;;;4.78;2.92;;;17.20;76.50;;;;;;5006013;28;20053;-67
2021/10/03 01:07:27;;;;;;;6.85;2.80;;;17.40;76.20;;;;;;5002729;28;20022;-66
2021/10/03 01:09:53;;;;;;;5.93;2.70;;;17.30;76.30;;;;;;5002792;28;20037;-67
2021/10/03 01:12:19;;;;;;;5.25;2.88;;;17.40;76.30;;;;;;5004980;28;20029;-67
2021/10/03 01:14:44;;;;;;;7.13;3.08;;;17.30;76.60;;;;;;5007256;28;20417;-68
2021/10/03 01:17:10;;;;;;;5.68;3.28;;;17.50;75.90;;;;;;5001727;28;20103;-66
2021/10/03 01:19:37;;;;;;;5.97;2.92;;;17.50;76.40;;;;;;4999784;28;20081;-67
2021/10/03 01:22:03;;;;;;;6.00;2.88;;;17.50;76.20;;;;;;4999097;28;20033;-67
2021/10/03 01:24:33;;;;;;;5.57;2.92;;;17.60;75.60;;;;;;5002898;28;20185;-67
2021/10/03 01:26:59;;;;;;;5.07;3.03;;;17.50;76.30;;;;;;5001985;28;20033;-68
2021/10/03 01:29:27;;;;;;;4.97;3.00;;;17.60;76.20;;;;;;5003711;28;20100;-66
2021/10/03 01:31:53;;;;;;;5.45;3.15;;;17.70;75.70;;;;;;5004784;28;20458;-67
2021/10/03 01:34:19;;;;;;;5.63;2.95;;;17.70;75.80;;;;;;5000854;28;20065;-68
2021/10/03 01:36:44;;;;;;;5.38;2.72;;;17.80;75.80;;;;;;5004875;28;20060;-68
2021/10/03 01:39:10;;;;;;;5.32;2.65;;;17.70;76.10;;;;;;5001469;28;20030;-67
2021/10/03 01:41:36;;;;;;;4.80;2.80;;;17.90;75.40;;;;;;5004845;28;20084;-67
2021/10/03 01:44:03;;;;;;;4.72;2.70;;;17.80;76.30;;;;;;5005672;28;20022;-67
2021/10/03 01:46:28;;;;;;;7.80;3.10;;;17.80;76.70;;;;;;5000924;28;20045;-67
2021/10/03 01:48:54;;;;;;;6.07;3.10;;;17.80;76.50;;;;;;5008433;28;20026;-66
2021/10/03 01:51:20;;;;;;;4.25;2.70;;;17.90;76.30;;;;;;5001266;28;20025;-67
2021/10/03 01:53:51;;;;;;;6.95;2.50;;;17.80;76.60;;;;;;5002330;28;20089;-67
2021/10/03 01:56:19;;;;;;;4.82;2.58;;;17.80;77.40;;;;;;5002537;28;20040;-66
2021/10/03 01:58:55;;;;;;;5.30;2.85;;;17.80;77.60;;;;;;5002147;28;20061;-66
2021/10/03 02:01:30;;;;;;;4.57;3.08;;;18.00;76.40;;;;;;5000521;28;20548;-67
2021/10/03 02:03:55;;;;;;;4.75;2.65;;;18.00;76.70;;;;;;4998760;28;20389;-66
2021/10/03 02:06:22;;;;;;;4.65;2.55;;;18.00;76.40;;;;;;5003852;28;20318;-66
2021/10/03 02:08:56;;;;;;;6.63;2.72;;;18.10;75.80;;;;;;5000506;28;20030;-66
2021/10/03 02:11:27;;;;;;;5.13;2.70;;;18.20;75.30;;;;;;4994124;28;20027;-67
2021/10/03 02:13:53;;;;;;;5.82;2.55;;;18.10;75.50;;;;;;5001724;28;21790;-67
2021/10/03 02:16:19;;;;;;;6.68;2.75;;;18.30;74.60;;;;;;5005444;28;20045;-67
2021/10/03 02:18:47;;;;;;;4.50;2.42;;;18.40;74.20;;;;;;5003124;28;20455;-65
2021/10/03 02:21:14;;;;;;;4.70;2.47;;;18.40;73.90;;;;;;4995354;28;20026;-67
2021/10/03 02:23:41;;;;;;;6.13;2.47;;;18.30;74.70;;;;;;4997318;28;20038;-67
2021/10/03 02:26:07;;;;;;;5.25;2.50;;;18.40;74.20;;;;;;5003573;28;20493;-67
2021/10/03 02:28:33;;;;;;;6.90;2.65;;;18.40;74.10;;;;;;5001288;28;20088;-67
2021/10/03 02:31:03;;;;;;;6.68;2.35;;;18.40;74.30;;;;;;5003332;28;20105;-67
2021/10/03 02:33:29;;;;;;;6.05;3.00;;;18.50;73.50;;;;;;5009304;28;20124;-67
2021/10/03 02:35:55;;;;;;;7.90;2.75;;;18.50;73.60;;;;;;4996926;28;20112;-68
2021/10/03 02:38:23;;;;;;;6.18;2.65;;;18.50;73.50;;;;;;5002352;28;20038;-67
2021/10/03 02:40:51;;;;;;;5.35;2.67;;;18.60;73.20;;;;;;5007250;28;20544;-68
2021/10/03 02:43:17;;;;;;;5.38;2.55;;;18.60;73.50;;;;;;5003835;28;20495;-67
2021/10/03 02:45:52;;;;;;;5.20;2.63;;;18.60;73.50;;;;;;5002625;28;20248;-67
2021/10/03 02:48:21;;;;;;;4.22;2.40;;;18.50;73.90;;;;;;5003016;28;20026;-67
2021/10/03 02:50:48;;;;;;;4.30;2.35;;;18.50;74.10;;;;;;5005347;28;20036;-67
2021/10/03 02:53:15;;;;;;;4.50;2.75;;;18.50;74.70;;;;;;5003328;28;20030;-67
2021/10/03 02:55:41;;;;;;;6.88;2.10;;;18.50;74.30;;;;;;5000949;28;20089;-67
2021/10/03 02:58:07;;;;;;;4.65;2.30;;;18.50;74.60;;;;;;4995380;28;20516;-68
2021/10/03 03:00:35;;;;;;;9.27;2.53;;;18.50;74.80;;;;;;4999846;28;20030;-68
2021/10/03 03:03:00;;;;;;;6.65;2.80;;;18.40;75.80;;;;;;4999392;28;20281;-67
2021/10/03 03:05:26;;;;;;;5.43;2.92;;;18.20;77.00;;;;;;5004538;28;20392;-67
2021/10/03 03:07:52;;;;;;;5.03;2.83;;;18.00;77.90;;;;;;5001932;28;20036;-67
2021/10/03 03:10:17;;;;;;;6.45;3.13;;;17.80;79.00;;;;;;4997149;28;20029;-67
2021/10/03 03:12:43;;;;;;;6.47;3.10;;;17.60;81.50;;;;;;5003723;28;20058;-67
2021/10/03 03:15:09;;;;;;;5.75;2.85;;;17.50;82.40;;;;;;5001832;28;20032;-67
2021/10/03 03:17:36;;;;;;;5.70;3.08;;;17.30;83.20;;;;;;4998004;28;20036;-67
2021/10/03 03:20:03;;;;;;;7.38;3.38;;;17.10;84.40;;;;;;4999357;28;20030;-68
2021/10/03 03:22:29;;;;;;;6.72;2.70;;;17.00;84.50;;;;;;4997243;28;20280;-67
2021/10/03 03:24:54;;;;;;;5.88;2.80;;;17.00;84.90;;;;;;5004032;28;20358;-67
2021/10/03 03:27:20;;;;;;;5.03;3.25;;;17.00;84.40;;;;;;4999603;28;20037;-68
2021/10/03 03:29:46;;;;;;;4.97;3.00;;;16.90;85.60;;;;;;4999378;28;20549;-67
2021/10/03 03:32:11;;;;;;;6.13;3.40;;;16.80;86.20;;;;;;5000110;28;20113;-65
2021/10/03 03:34:37;;;;;;;7.63;3.47;;;16.70;86.70;;;;;;5003351;28;20559;-67
2021/10/03 03:37:03;;;;;;;5.32;3.22;;;16.70;87.10;;;;;;4999544;28;20061;-67
2021/10/03 03:39:29;;;;;;;6.78;3.30;;;16.70;86.30;;;;;;5004739;28;20065;-68
2021/10/03 03:41:55;;;;;;;6.75;3.30;;;16.70;86.80;;;;;;5000237;28;20516;-67
2021/10/03 03:44:21;;;;;;;5.38;3.22;;;16.70;86.50;;;;;;4997645;28;20040;-67
2021/10/03 03:46:46;;;;;;;5.50;3.00;;;16.60;87.40;;;;;;5000871;28;20397;-68
2021/10/03 03:49:12;;;;;;;8.18;3.80;;;16.60;87.10;;;;;;5006772;28;20116;-67
2021/10/03 03:51:38;;;;;;;7.03;3.40;;;16.70;86.60;;;;;;5000307;28;20135;-68
2021/10/03 03:54:03;;;;;;;6.40;3.35;;;16.60;87.60;;;;;;5001922;28;20041;-67
2021/10/03 03:56:29;;;;;;;6.50;3.55;;;16.60;87.30;;;;;;5002022;28;20036;-66
2021/10/03 03:58:55;;;;;;;5.45;3.15;;;16.50;87.40;;;;;;4998521;28;20381;-67
2021/10/03 04:01:20;;;;;;;8.63;3.25;;;16.50;88.10;;;;;;4997982;28;20409;-67
2021/10/03 04:03:47;;;;;;;6.25;3.70;;;16.60;86.90;;;;;;5005213;28;20034;-66
2021/10/03 04:06:13;;;;;;;6.65;3.42;;;16.60;87.10;;;;;;4999486;28;20018;-67
2021/10/03 04:08:38;;;;;;;5.65;3.40;;;16.50;87.20;;;;;;4999885;28;20030;-66
2021/10/03 04:11:05;;;;;;;6.38;3.47;;;16.70;86.30;;;;;;5001052;28;20054;-67
2021/10/03 04:13:31;;;;;;;7.78;3.65;;;16.70;86.20;;;;;;5006554;28;20030;-68
2021/10/03 04:15:57;;;;;;;5.18;3.22;;;16.60;86.70;;;;;;5001882;28;20046;-66
2021/10/03 04:18:23;;;;;;;6.05;3.50;;;16.60;86.00;;;;;;5004945;28;20124;-68
2021/10/03 04:20:48;;;;;;;6.40;3.63;;;16.70;86.00;;;;;;5004811;28;20030;-65
2021/10/03 04:23:14;;;;;;;5.63;3.45;;;16.80;85.90;;;;;;5004464;28;20029;-63
2021/10/03 04:25:40;;;;;;;5.90;3.50;;;16.70;86.50;;;;;;5006254;28;20501;-64
2021/10/03 04:28:06;;;;;;;5.82;3.40;;;16.60;86.60;;;;;;5004622;28;20489;-64
2021/10/03 04:30:32;;;;;;;5.25;3.10;;;16.70;85.50;;;;;;5004422;28;20030;-65
2021/10/03 04:32:57;;;;;;;4.93;3.30;;;16.80;85.20;;;;;;5002971;28;20396;-64
2021/10/03 04:35:23;;;;;;;6.72;3.53;;;17.00;84.30;;;;;;4998958;28;20031;-65
2021/10/03 04:37:49;;;;;;;6.30;3.50;;;17.00;83.80;;;;;;5001010;28;20092;-64
2021/10/03 04:40:15;;;;;;;6.13;2.85;;;17.00;83.70;;;;;;5006527;28;20432;-65
2021/10/03 04:42:41;;;;;;;5.18;3.20;;;17.00;83.70;;;;;;5004648;28;20184;-65
2021/10/03 04:45:07;;;;;;;5.55;3.28;;;17.20;83.20;;;;;;5002330;28;20049;-63
2021/10/03 04:47:33;;;;;;;5.10;2.95;;;17.10;83.60;;;;;;5005491;28;20037;-65
2021/10/03 04:50:00;;;;;;;4.68;2.95;;;17.20;82.90;;;;;;5007984;28;20400;-65
2021/10/03 04:52:26;;;;;;;6.20;3.15;;;17.20;82.80;;;;;;5005927;28;20044;-64
2021/10/03 04:54:53;;;;;;;6.43;3.03;;;17.30;82.50;;;;;;5004640;28;20038;-65
2021/10/03 04:57:18;;;;;;;6.97;3.10;;;17.30;82.40;;;;;;5005762;28;20079;-64
2021/10/03 04:59:44;;;;;;;4.63;3.00;;;17.30;82.60;;;;;;5005276;28;20026;-63
2021/10/03 05:02:10;;;;;;;5.10;3.10;;;17.30;82.30;;;;;;5001892;28;20414;-63
2021/10/03 05:04:36;;;;;;;5.20;2.75;;;17.30;82.60;;;;;;5002347;28;20026;-63
2021/10/03 05:07:02;;;;;;;6.63;2.95;;;17.30;82.60;;;;;;4996098;28;20076;-64
2021/10/03 05:09:28;;;;;;;5.30;2.80;;;17.30;82.20;;;;;;5007410;28;20292;-63
2021/10/03 05:11:54;;;;;;;7.57;3.05;;;17.30;82.30;;;;;;5005600;28;20604;-64
2021/10/03 05:14:19;;;;;;;6.25;2.80;;;17.20;83.10;;;;;;5006063;28;22190;-65
2021/10/03 05:16:46;;;;;;;5.55;2.85;;;17.30;82.20;;;;;;5002642;28;20500;-63
2021/10/03 05:19:11;;;;;;;4.55;2.45;;;17.40;82.00;;;;;;5001152;28;20030;-63
2021/10/03 05:21:37;;;;;;;4.65;2.50;;;17.40;81.70;;;;;;5002571;28;20049;-63
2021/10/03 05:24:04;;;;;;;4.82;2.70;;;17.30;82.20;;;;;;5010824;28;20040;-65
2021/10/03 05:26:29;;;;;;;7.57;2.58;;;17.30;81.90;;;;;;4999345;28;20026;-65
2021/10/03 05:28:55;;;;;;;6.03;2.60;;;17.50;81.00;;;;;;5003238;28;20030;-65
2021/10/03 05:31:21;;;;;;;5.25;2.47;;;17.50;80.80;;;;;;5007765;28;20100;-62
2021/10/03 05:33:47;;;;;;;6.25;2.67;;;17.60;80.20;;;;;;5014591;28;20401;-63
2021/10/03 05:36:12;;;;;;;5.20;2.63;;;17.60;80.20;;;;;;4996559;28;20148;-63
2021/10/03 05:38:38;;;;;;;6.32;2.75;;;17.60;80.00;;;;;;5003947;28;20034;-64
2021/10/03 05:41:04;;;;;;;6.43;2.45;;;17.60;80.40;;;;;;5001616;28;20034;-63
2021/10/03 05:43:29;;;;;;;8.05;2.53;;;17.50;80.60;;;;;;5002996;28;20030;-64
2021/10/03 05:45:55;;;;;;;6.20;2.65;;;17.50;80.50;;;;;;4999834;28;20470;-63
2021/10/03 05:48:21;;;;;;;6.00;2.63;;;17.60;79.80;;;;;;4998194;28;20088;-64
2021/10/03 05:50:47;;;;;;;5.53;2.90;;;17.70;79.80;;;;;;5005323;28;20022;-63
2021/10/03 05:53:12;;;;;;;6.25;2.65;;;17.80;79.40;;;;;;5002008;28;20029;-64
2021/10/03 05:55:38;;;;;;;5.70;2.83;;;17.90;79.20;;;;;;5002745;28;20044;-63
2021/10/03 05:58:04;;;;;;;4.10;2.50;;;17.90;78.70;;;;;;5002438;28;20073;-64
2021/10/03 06:00:30;;;;;;;6.80;2.67;;;17.90;78.70;;;;;;4999582;28;20080;-64
2021/10/03 06:02:55;;;;;;;5.55;2.60;;;18.00;78.80;;;;;;5001265;28;20514;-64
2021/10/03 06:05:21;;;;;;;6.68;2.55;;;18.00;78.30;;;;;;5003932;28;20034;-63
2021/10/03 06:07:47;;;;;;;6.28;2.75;;;18.00;78.50;;;;;;5001649;28;20088;-62
2021/10/03 06:10:12;;;;;;;4.45;2.60;;;18.00;79.00;;;;;;5003499;28;20305;-64
2021/10/03 06:12:38;;;;;;;4.05;2.67;;;18.00;79.30;;;;;;5002650;28;20500;-64
2021/10/03 06:15:05;;;;;;;3.92;2.60;;;18.10;78.10;;;;;;5005342;28;20240;-63
2021/10/03 06:17:31;;;;;;;4.88;2.70;;;18.10;78.40;;;;;;5002764;28;20033;-64
2021/10/03 06:19:57;;;;;;;6.45;2.78;;;18.20;78.80;;;;;;5010570;28;20516;-64
2021/10/03 06:22:24;;;;;;;3.67;2.47;;;18.10;79.30;;;;;;4996171;28;20053;-63
2021/10/03 06:24:51;;;;;;;4.85;2.53;;;18.00;79.50;;;;;;5003388;28;20033;-62
2021/10/03 06:27:17;;;;;;;4.68;2.55;;;18.20;79.00;;;;;;4998442;28;20495;-64
2021/10/03 06:29:43;;;;;;;4.53;2.22;;;18.20;79.10;;;;;;5003400;28;20018;-62
2021/10/03 06:32:09;;;;;;;6.18;2.70;;;18.20;79.60;;;;;;5002977;28;20663;-64
2021/10/03 06:34:35;;;;;;;6.70;3.03;;;18.10;80.20;;;;;;5002286;28;20026;-64
2021/10/03 06:37:00;;;;;;;6.43;2.88;;;18.30;78.80;;;;;;5001334;28;20033;-64
2021/10/03 06:39:26;;;;;;;5.18;2.65;;;18.40;78.90;;;;;;5006960;28;20598;-63
2021/10/03 06:41:52;;;;;;;5.57;2.88;;;18.30;79.40;;;;;;4999326;28;21643;-63
2021/10/03 06:44:17;;;;;;;5.90;2.65;;;18.30;79.10;;;;;;4993409;28;20434;-63
2021/10/03 06:46:43;;;;;;;5.30;2.65;;;18.40;79.00;;;;;;4996459;28;20489;-63
2021/10/03 06:49:09;;;;;;;5.05;2.67;;;18.30;79.20;;;;;;4996115;28;20033;-63
2021/10/03 06:51:35;;;;;;;6.35;3.00;;;18.40;78.90;;;;;;4996229;28;20040;-62
2021/10/03 06:54:01;;;;;;;5.57;2.85;;;18.60;77.50;;;;;;4999831;28;20034;-62
2021/10/03 06:56:26;;;;;;;5.82;2.90;;;18.70;77.20;;;;;;5003337;28;20030;-60
2021/10/03 06:58:52;;;;;;;4.53;2.85;;;18.60;77.30;;;;;;4998144;28;20034;-62
2021/10/03 07:01:18;;;;;;;5.60;2.67;;;18.70;76.90;;;;;;4994117;28;20112;-62
2021/10/03 07:03:43;;;;;;;5.47;3.10;;;18.60;77.50;;;;;;4998417;28;20037;-62
2021/10/03 07:06:10;;;;;;;5.72;2.78;;;18.60;78.10;;;;;;5002676;28;20396;-62
2021/10/03 07:08:35;;;;;;;4.03;2.47;;;18.60;78.00;;;;;;4998055;28;20064;-65
2021/10/03 07:11:01;;;;;;;4.57;2.92;;;18.50;78.30;;;;;;4999960;28;20026;-64
2021/10/03 07:13:27;;;;;;;6.55;3.00;;;18.50;78.30;;;;;;4997759;28;20030;-65
2021/10/03 07:15:52;;;;;;;4.68;2.63;;;18.50;78.90;;;;;;4999390;28;20084;-65
2021/10/03 07:18:18;;;;;;;5.97;3.08;;;18.50;78.90;;;;;;4996408;28;20477;-65
2021/10/03 07:20:44;;;;;;;6.53;2.80;;;18.50;79.70;;;;;;4999551;28;20449;-63
2021/10/03 07:23:10;;;;;;;5.72;3.20;;;18.40;80.20;;;;;;4999308;28;20022;-66
2021/10/03 07:25:35;;;;;;;5.38;3.53;;;18.30;80.40;;;;;;4999739;28;20039;-65
2021/10/03 07:28:01;;;;;;;7.28;2.95;;;18.10;81.40;;;;;;4998531;28;20022;-64
2021/10/03 07:30:27;;;;;;;4.80;3.28;;;18.10;81.20;;;;;;5002377;28;20128;-64
2021/10/03 07:32:52;;;;;;;9.05;3.65;;;18.00;81.80;;;;;;5001384;28;20029;-63
2021/10/03 07:35:18;;;;;;;6.70;3.78;;;18.00;82.20;;;;;;4999036;28;20116;-65
2021/10/03 07:37:44;;;;;;;5.22;3.47;;;17.80;83.60;;;;;;4998317;28;20284;-64
2021/10/03 07:40:10;;;;;;;6.57;3.90;;;17.80;83.60;;;;;;5003445;28;20049;-64
2021/10/03 07:42:36;;;;;;;6.10;3.65;;;17.70;84.50;;;;;;5000456;28;20080;-65
2021/10/03 07:45:03;;;;;;;10.02;3.70;;;17.60;84.20;;;;;;5004571;28;20057;-65
2021/10/03 07:47:29;;;;;;;7.20;3.88;;;17.60;85.10;;;;;;5000545;28;20027;-65
2021/10/03 07:49:55;;;;;;;7.45;3.55;;;17.60;84.40;;;;;;5004565;28;20076;-64
2021/10/03 07:52:20;;;;;;;6.40;3.88;;;17.70;83.60;;;;;;5003394;28;20060;-63
2021/10/03 07:54:46;;;;;;;6.45;3.70;;;17.80;83.70;;;;;;4996619;28;20121;-65
2021/10/03 07:57:12;;;;;;;4.88;3.58;;;17.80;83.10;;;;;;4999199;28;20048;-65
2021/10/03 07:59:38;;;;;;;5.45;3.00;;;17.80;83.30;;;;;;5002907;28;20057;-65
2021/10/03 08:02:04;;;;;;;6.80;3.25;;;17.80;83.50;;;;;;5002629;28;20025;-65
2021/10/03 08:04:29;;;;;;;8.35;3.40;;;17.80;83.20;;;;;;5002675;28;20033;-64
2021/10/03 08:06:55;;;;;;;6.55;3.60;;;17.80;83.10;;;;;;5002619;28;20025;-65
2021/10/03 08:09:21;;;;;;;6.03;2.88;;;17.80;83.50;;;;;;5001415;28;20037;-65
2021/10/03 08:11:48;;;;;;;6.93;3.42;;;18.00;82.30;;;;;;5002272;28;20523;-64
2021/10/03 08:14:13;;;;;;;5.70;3.33;;;18.10;82.00;;;;;;4999559;28;20030;-65
2021/10/03 08:16:40;;;;;;;7.38;3.35;;;18.30;81.20;;;;;;5004503;28;20045;-64
2021/10/03 08:19:05;;;;;;;7.57;3.33;;;18.40;80.30;;;;;;5003063;28;20104;-64
2021/10/03 08:21:31;;;;;;;6.20;3.20;;;18.50;79.80;;;;;;4999520;28;20053;-63
2021/10/03 08:23:57;;;;;;;5.38;3.22;;;18.50;79.70;;;;;;4999881;28;20441;-63
2021/10/03 08:26:23;;;;;;;7.47;3.15;;;18.60;79.20;;;;;;5001506;28;20058;-64
2021/10/03 08:28:48;;;;;;;6.40;3.20;;;18.50;79.00;;;;;;5000276;28;20053;-64
2021/10/03 08:31:14;;;;;;;6.93;2.88;;;18.60;78.50;;;;;;5001442;28;20021;-63
2021/10/03 08:33:41;;;;;;;6.55;3.65;;;18.50;78.30;;;;;;5000504;28;20101;-64
2021/10/03 08:36:06;;;;;;;4.55;3.25;;;18.50;78.40;;;;;;4997615;28;21036;-64
2021/10/03 08:38:32;;;;;;;5.88;3.22;;;18.60;77.50;;;;;;4997770;28;20474;-64
2021/10/03 08:41:02;;;;;;;6.20;3.45;;;18.50;79.70;;;;;;5002509;28;20022;-64
2021/10/03 08:43:29;;;;;;;4.72;3.30;;;18.40;79.00;;;;;;5000059;28;20030;-64
2021/10/03 08:45:57;;;;;;;7.07;3.03;;;18.50;78.20;;;;;;5007130;28;20552;-64
2021/10/03 08:48:24;;;;;;;6.32;3.30;;;18.50;78.20;;;;;;4998822;28;20025;-66
2021/10/03 08:50:50;;;;;;;6.07;3.22;;;18.70;77.30;;;;;;5002922;28;20034;-65
2021/10/03 08:53:16;;;;;;;4.45;2.75;;;18.70;77.10;;;;;;5000018;28;20022;-65
2021/10/03 08:55:43;;;;;;;7.57;3.30;;;18.80;77.80;;;;;;5001703;28;20040;-65
2021/10/03 08:58:09;;;;;;;5.53;3.22;;;18.80;77.20;;;;;;5003645;28;20076;-65
2021/10/03 09:00:47;;;;;;;5.10;2.83;;;18.90;76.30;;;;;;5003596;28;20059;-65
2021/10/03 09:03:15;;;;;;;8.55;3.13;;;18.80;77.40;;;;;;5002133;28;20134;-65
2021/10/03 09:05:50;;;;;;;4.72;2.63;;;18.70;77.20;;;;;;5001871;28;20022;-65
2021/10/03 09:08:17;;;;;;;5.43;3.15;;;18.70;77.40;;;;;;5001694;28;20058;-65
2021/10/03 09:10:55;;;;;;;4.72;2.75;;;18.60;78.30;;;;;;5003023;28;20496;-65
2021/10/03 09:13:31;;;;;;;10.75;3.20;;;18.50;78.50;;;;;;4998200;28;20037;-64
2021/10/03 09:16:10;;;;;;;5.88;2.80;;;18.60;77.00;;;;;;5005591;28;20041;-64
2021/10/03 09:18:49;;;;;;;5.83;3.20;;;18.60;77.60;;;;;;5000542;28;20049;-64
2021/10/03 09:21:29;;;;;;;4.57;2.85;;;18.60;77.70;;;;;;4999431;28;20092;-63
2021/10/03 09:23:58;;;;;;;5.00;2.95;;;18.70;76.30;;;;;;5000072;28;20556;-64
2021/10/03 09:26:25;;;;;;;7.65;3.25;;;18.70;76.30;;;;;;5005448;28;20084;-64
2021/10/03 09:28:51;;;;;;;6.43;3.22;;;18.80;76.20;;;;;;5004054;28;20026;-64
2021/10/03 09:31:17;;;;;;;4.47;2.63;;;18.70;77.20;;;;;;5002473;28;20214;-65
2021/10/03 09:33:52;;;;;;;4.70;3.20;;;18.60;77.60;;;;;;5002117;28;20107;-65
2021/10/03 09:36:43;;;;;;;6.22;3.58;;;18.50;77.80;;;;;;5000867;28;20489;-64
2021/10/03 09:39:09;;;;;;;4.27;2.73;;;18.50;78.10;;;;;;5005538;28;20037;-65
2021/10/03 09:41:39;;;;;;;5.30;2.90;;;18.50;78.10;;;;;;5002682;28;20045;-65
2021/10/03 09:44:14;;;;;;;7.05;3.28;;;18.60;77.40;;;;;;5005613;28;20041;-65
2021/10/03 09:46:46;;;;;;;3.55;2.63;;;18.60;76.30;;;;;;5001492;28;20029;-63
2021/10/03 09:49:26;;;;;;;5.40;2.90;;;18.70;76.60;;;;;;5007599;28;20070;-63
2021/10/03 09:51:52;;;;;;;5.32;2.67;;;18.60;78.40;;;;;;4996222;28;20118;-64
2021/10/03 09:54:19;;;;;;;5.22;2.63;;;18.30;79.80;;;;;;5006023;28;20458;-63
2021/10/03 09:56:47;;;;;;;6.88;3.35;;;18.10;80.30;;;;;;5005142;28;20202;-62
2021/10/03 09:59:13;;;;;;;8.25;3.63;;;18.00;82.00;;;;;;5005227;28;20076;-64
2021/10/03 10:01:44;;;;;;;8.35;3.45;;;17.90;83.10;;;;;;4998905;28;20133;-63
2021/10/03 10:04:11;;;;;;;6.10;3.05;;;17.80;83.50;;;;;;5004958;28;20033;-62
2021/10/03 10:06:37;;;;;;;5.57;3.20;;;17.80;82.30;;;;;;5003267;28;20053;-63
2021/10/03 10:09:10;;;;;;;5.47;3.00;;;17.90;82.80;;;;;;5001069;28;20030;-63
2021/10/03 10:11:57;;;;;;;4.45;2.80;;;17.90;82.30;;;;;;5002467;28;20029;-64
2021/10/03 10:14:37;;;;;;;4.82;2.72;;;18.20;79.80;;;;;;4998173;28;20595;-62
2021/10/03 10:17:30;;;;;;;5.15;2.78;;;18.30;79.50;;;;;;5000018;28;20225;-64
2021/10/03 10:19:57;;;;;;;3.95;2.63;;;18.60;77.50;;;;;;5005457;28;20588;-64
2021/10/03 10:22:24;;;;;;;4.28;2.58;;;18.70;76.80;;;;;;4997735;28;20493;-63
2021/10/03 10:24:59;;;;;;;4.10;2.55;;;18.80;76.00;;;;;;5002499;28;20056;-64
2021/10/03 10:27:25;;;;;;;4.53;2.40;;;18.90;75.20;;;;;;5004222;28;20022;-64
2021/10/03 10:30:11;;;;;;;5.60;2.42;;;19.00;74.20;;;;;;5003853;28;20614;-65
2021/10/03 10:32:56;;;;;;;3.92;2.38;;;19.10;73.20;;;;;;5000196;28;20030;-65
2021/10/03 10:35:32;;;;;;;4.78;2.60;;;19.30;73.70;;;;;;5002532;28;20187;-65
2021/10/03 10:38:01;;;;;;;5.40;2.20;;;19.30;73.30;;;;;;5001098;28;20100;-62
2021/10/03 10:40:33;;;;;;;3.75;2.38;;;19.40;73.80;;;;;;5004559;28;20092;-64
2021/10/03 10:43:07;;;;;;;3.95;2.17;;;19.40;73.90;;;;;;4999681;28;20034;-63
2021/10/03 10:45:36;;;;;;;5.15;2.63;;;19.50;72.70;;;;;;5002327;28;20030;-70
2021/10/03 10:48:13;;;;;;;3.95;2.40;;;19.50;73.50;;;;;;4999946;28;20387;-63
2021/10/03 10:50:54;;;;;;;4.22;2.45;;;19.60;71.70;;;;;;5003260;28;20136;-62
2021/10/03 10:53:35;;;;;;;5.40;2.40;;;19.60;70.80;;;;;;5000289;28;20121;-62
2021/10/03 10:56:24;;;;;;;2.53;1.77;;;19.60;71.50;;;;;;5001878;28;20405;-63
2021/10/03 10:58:53;;;;;;;5.75;2.72;;;19.70;70.00;;;;;;5000448;28;20436;-64
2021/10/03 11:01:35;;;;;;;3.58;2.10;;;19.70;70.30;;;;;;4997850;28;20157;-63
2021/10/03 11:04:07;;;;;;;4.05;2.13;;;19.70;70.20;;;;;;4999583;28;20488;-63
2021/10/03 11:06:33;;;;;;;4.20;2.40;;;19.70;69.30;;;;;;4997957;28;20034;-61
2021/10/03 11:09:05;;;;;;;4.57;2.25;;;19.70;70.10;;;;;;5002721;28;20550;-67
2021/10/03 11:11:59;;;;;;;3.05;1.95;;;19.60;71.00;;;;;;5003297;28;20026;-66
2021/10/03 11:14:27;;;;;;;3.80;2.20;;;19.60;69.30;;;;;;4997702;28;20261;-66
2021/10/03 11:17:02;;;;;;;3.63;2.33;;;19.60;69.50;;;;;;5003594;28;20535;-66
2021/10/03 11:19:41;;;;;;;4.10;2.17;;;19.60;69.40;;;;;;5000339;28;20042;-67
2021/10/03 11:22:20;;;;;;;4.78;2.40;;;19.60;69.60;;;;;;4999263;28;20091;-65
2021/10/03 11:24:49;;;;;;;3.85;2.05;;;19.70;68.50;;;;;;5007093;28;20040;-67
2021/10/03 11:27:21;;;;;;;3.97;2.25;;;19.70;68.70;;;;;;4999173;28;20053;-65
2021/10/03 11:29:53;;;;;;;5.43;2.17;;;19.70;68.60;;;;;;5009665;28;20094;-67
2021/10/03 11:32:21;;;;;;;5.32;2.30;;;19.60;70.30;;;;;;5000452;28;20120;-66
2021/10/03 11:34:53;;;;;;;3.40;2.10;;;19.50;71.40;;;;;;4997143;28;20881;-65
2021/10/03 11:37:34;;;;;;;3.30;2.20;;;19.50;70.70;;;;;;5007583;28;20600;-65
2021/10/03 11:40:11;;;;;;;3.90;2.22;;;19.50;70.20;;;;;;5011453;28;20072;-65
2021/10/03 11:42:53;;;;;;;3.60;2.33;;;19.50;71.10;;;;;;5005023;28;20030;-66
2021/10/03 11:45:20;;;;;;;3.00;1.98;;;19.60;71.30;;;;;;5000432;28;20033;-67
2021/10/03 11:47:58;;;;;;;3.45;2.30;;;19.70;71.80;;;;;;4993689;28;20084;-65
2021/10/03 11:50:50;;;;;;;4.93;2.00;;;19.80;70.70;;;;;;4998770;28;20022;-66
2021/10/03 11:53:22;;;;;;;3.97;2.15;;;19.80;70.30;;;;;;5000464;28;20026;-66
2021/10/03 11:55:49;;;;;;;4.55;2.00;;;19.70;71.10;;;;;;5002330;28;20030;-66
2021/10/03 11:58:18;;;;;;;3.67;2.05;;;19.70;71.80;;;;;;4999089;28;20604;-65
2021/10/03 12:01:05;;;;;;;5.40;2.35;;;19.70;70.10;;;;;;5001427;28;20025;-65
2021/10/03 12:03:36;;;;;;;5.32;2.33;;;19.70;70.10;;;;;;5000518;28;20038;-66
2021/10/03 12:06:22;;;;;;;4.22;2.20;;;19.80;70.30;;;;;;5006112;28;20038;-66
2021/10/03 12:08:48;;;;;;;3.47;2.20;;;20.00;70.30;;;;;;5002843;28;20088;-64
2021/10/03 12:11:16;;;;;;;3.58;2.17;;;20.00;70.00;;;;;;5005168;28;20026;-65
2021/10/03 12:13:54;;;;;;;3.40;2.00;;;20.00;69.60;;;;;;4999524;28;20018;-66
2021/10/03 12:16:20;;;;;;;8.55;2.00;;;20.00;68.70;;;;;;5001760;28;20100;-66
2021/10/03 12:19:05;;;;;;;3.90;2.40;;;20.10;69.30;;;;;;5000015;28;20493;-66
2021/10/03 12:21:34;;;;;;;3.92;2.25;;;20.00;69.60;;;;;;5005046;28;20169;-66
2021/10/03 12:24:05;;;;;;;4.15;2.20;;;20.00;69.00;;;;;;5000113;28;20394;-64
2021/10/03 12:26:51;;;;;;;4.22;2.10;;;20.00;69.80;;;;;;5004506;28;20061;-66
2021/10/03 12:29:21;;;;;;;3.80;2.08;;;20.00;69.90;;;;;;5000548;28;21156;-62
2021/10/03 12:32:01;;;;;;;4.80;2.15;;;20.20;69.40;;;;;;5000250;28;20025;-63
2021/10/03 12:34:28;;;;;;;4.68;2.28;;;20.30;68.50;;;;;;5005758;28;20029;-63
2021/10/03 12:36:53;;;;;;;4.88;2.10;;;20.50;68.30;;;;;;4996897;28;20029;-64
2021/10/03 12:39:24;;;;;;;3.78;2.10;;;20.50;67.90;;;;;;5008569;28;20409;-64
2021/10/03 12:41:53;;;;;;;3.25;2.15;;;20.50;68.90;;;;;;5010721;28;20029;-67
2021/10/03 12:44:23;;;;;;;4.32;2.00;;;20.50;68.30;;;;;;5005206;28;20117;-66
2021/10/03 12:46:49;;;;;;;3.28;2.00;;;20.40;68.60;;;;;;5021268;28;20054;-67
2021/10/03 12:49:14;;;;;;;3.83;2.15;;;20.40;68.50;;;;;;5017708;28;20049;-66
2021/10/03 12:51:40;;;;;;;4.68;2.10;;;20.40;69.30;;;;;;5007960;28;20018;-67
2021/10/03 12:54:06;;;;;;;3.88;1.88;;;20.40;68.40;;;;;;5008713;28;20116;-68